sensor_id;sensor_type;location;lat;lon;timestamp;temperature;humidity
8463;DHT22;4268;52.506;13.462;2024-02-28T00:00:09;5.00;99.90
8463;DHT22;4268;52.506;13.462;2024-02-28T00:02:36;5.00;99.90
8463;DHT22;4268;52.506;13.462;2024-02-28T00:05:02;5.00;99.90
8463;DHT22;4268;52.506;13.462;2024-02-28T00:07:27;5.00;99.90
8463;DHT22;4268;52.506;13.462;2024-02-28T00:09:53;5.00;99.90
8463;DHT22;4268;52.506;13.462;2024-02-28T00:12:23;5.00;99.90
8463;DHT22;4268;52.506;13.462;2024-02-28T00:14:50;5.00;99.90
8463;DHT22;4268;52.506;13.462;2024-02-28T00:17:15;5.10;99.90
8463;DHT22;4268;52.506;13.462;2024-02-28T00:19:41;5.00;99.90
8463;DHT22;4268;52.506;13.462;2024-02-28T00:22:08;5.00;99.90
8463;DHT22;4268;52.506;13.462;2024-02-28T00:24:33;5.00;99.90
8463;DHT22;4268;52.506;13.462;2024-02-28T00:26:58;5.00;99.90
8463;DHT22;4268;52.506;13.462;2024-02-28T00:29:24;5.00;99.90
8463;DHT22;4268;52.506;13.462;2024-02-28T00:31:49;5.00;99.90
8463;DHT22;4268;52.506;13.462;2024-02-28T00:34:15;5.00;99.90
8463;DHT22;4268;52.506;13.462;2024-02-28T00:36:40;5.10;99.90
8463;DHT22;4268;52.506;13.462;2024-02-28T00:39:07;5.10;99.90
8463;DHT22;4268;52.506;13.462;2024-02-28T00:41:32;5.00;99.90
8463;DHT22;4268;52.506;13.462;2024-02-28T00:43:58;5.10;99.90
8463;DHT22;4268;52.506;13.462;2024-02-28T00:46:23;5.10;99.90
8463;DHT22;4268;52.506;13.462;2024-02-28T00:48:49;5.10;99.90
8463;DHT22;4268;52.506;13.462;2024-02-28T00:51:15;5.10;99.90
8463;DHT22;4268;52.506;13.462;2024-02-28T00:53:40;5.10;99.90
8463;DHT22;4268;52.506;13.462;2024-02-28T00:56:06;5.70;99.90
8463;DHT22;4268;52.506;13.462;2024-02-28T00:58:32;5.10;99.90
8463;DHT22;4268;52.506;13.462;2024-02-28T01:00:57;5.00;99.90
8463;DHT22;4268;52.506;13.462;2024-02-28T01:03:23;5.00;99.90
8463;DHT22;4268;52.506;13.462;2024-02-28T01:05:49;5.00;99.90
8463;DHT22;4268;52.506;13.462;2024-02-28T01:08:16;5.00;99.90
8463;DHT22;4268;52.506;13.462;2024-02-28T01:10:45;4.90;99.90
8463;DHT22;4268;52.506;13.462;2024-02-28T01:13:10;4.90;99.90
8463;DHT22;4268;52.506;13.462;2024-02-28T01:15:36;4.90;99.90
8463;DHT22;4268;52.506;13.462;2024-02-28T01:18:02;4.90;99.90
8463;DHT22;4268;52.506;13.462;2024-02-28T01:20:28;4.90;99.90
8463;DHT22;4268;52.506;13.462;2024-02-28T01:22:53;4.90;99.90
8463;DHT22;4268;52.506;13.462;2024-02-28T01:25:18;4.90;99.90
8463;DHT22;4268;52.506;13.462;2024-02-28T01:27:44;4.90;99.90
8463;DHT22;4268;52.506;13.462;2024-02-28T01:30:10;5.00;99.90
8463;DHT22;4268;52.506;13.462;2024-02-28T01:32:36;5.00;99.90
8463;DHT22;4268;52.506;13.462;2024-02-28T01:35:02;5.00;99.90
8463;DHT22;4268;52.506;13.462;2024-02-28T01:37:28;5.00;99.90
8463;DHT22;4268;52.506;13.462;2024-02-28T01:39:54;5.00;99.90
8463;DHT22;4268;52.506;13.462;2024-02-28T01:42:19;5.00;99.90
8463;DHT22;4268;52.506;13.462;2024-02-28T01:44:47;5.00;99.90
8463;DHT22;4268;52.506;13.462;2024-02-28T01:47:14;5.00;99.90
8463;DHT22;4268;52.506;13.462;2024-02-28T01:49:41;4.90;99.90
8463;DHT22;4268;52.506;13.462;2024-02-28T01:52:07;5.00;99.90
8463;DHT22;4268;52.506;13.462;2024-02-28T01:54:34;5.00;99.90
8463;DHT22;4268;52.506;13.462;2024-02-28T01:57:01;4.90;99.90
8463;DHT22;4268;52.506;13.462;2024-02-28T01:59:26;4.90;99.90
8463;DHT22;4268;52.506;13.462;2024-02-28T02:01:53;4.90;99.90
8463;DHT22;4268;52.506;13.462;2024-02-28T02:04:19;4.90;99.90
8463;DHT22;4268;52.506;13.462;2024-02-28T02:06:45;4.90;99.90
8463;DHT22;4268;52.506;13.462;2024-02-28T02:09:12;4.90;99.90
8463;DHT22;4268;52.506;13.462;2024-02-28T02:11:38;4.90;99.90
8463;DHT22;4268;52.506;13.462;2024-02-28T02:14:04;4.90;99.90
8463;DHT22;4268;52.506;13.462;2024-02-28T02:16:29;4.90;99.90
8463;DHT22;4268;52.506;13.462;2024-02-28T02:18:55;4.90;99.90
8463;DHT22;4268;52.506;13.462;2024-02-28T02:21:24;4.90;99.90
8463;DHT22;4268;52.506;13.462;2024-02-28T02:23:52;4.90;99.90
8463;DHT22;4268;52.506;13.462;2024-02-28T02:26:18;4.90;99.90
8463;DHT22;4268;52.506;13.462;2024-02-28T02:28:44;5.00;99.90
8463;DHT22;4268;52.506;13.462;2024-02-28T02:31:11;5.00;99.90
8463;DHT22;4268;52.506;13.462;2024-02-28T02:33:37;5.00;99.90
8463;DHT22;4268;52.506;13.462;2024-02-28T02:36:03;5.00;99.90
8463;DHT22;4268;52.506;13.462;2024-02-28T02:38:28;5.00;99.90
8463;DHT22;4268;52.506;13.462;2024-02-28T02:40:54;5.00;99.90
8463;DHT22;4268;52.506;13.462;2024-02-28T02:43:19;5.00;99.90
8463;DHT22;4268;52.506;13.462;2024-02-28T02:45:45;5.00;99.90
8463;DHT22;4268;52.506;13.462;2024-02-28T02:48:10;5.00;99.90
8463;DHT22;4268;52.506;13.462;2024-02-28T02:50:37;5.00;99.90
8463;DHT22;4268;52.506;13.462;2024-02-28T02:53:03;5.00;99.90
8463;DHT22;4268;52.506;13.462;2024-02-28T02:55:29;5.10;99.90
8463;DHT22;4268;52.506;13.462;2024-02-28T02:57:54;5.10;99.90
8463;DHT22;4268;52.506;13.462;2024-02-28T03:00:21;5.00;99.90
8463;DHT22;4268;52.506;13.462;2024-02-28T03:02:46;5.10;99.90
8463;DHT22;4268;52.506;13.462;2024-02-28T03:05:12;5.00;99.90
8463;DHT22;4268;52.506;13.462;2024-02-28T03:07:37;5.10;99.90
8463;DHT22;4268;52.506;13.462;2024-02-28T03:10:03;5.00;99.90
8463;DHT22;4268;52.506;13.462;2024-02-28T03:12:29;5.00;99.90
8463;DHT22;4268;52.506;13.462;2024-02-28T03:14:54;5.00;99.90
8463;DHT22;4268;52.506;13.462;2024-02-28T03:17:20;5.00;99.90
8463;DHT22;4268;52.506;13.462;2024-02-28T03:19:45;4.90;99.90
8463;DHT22;4268;52.506;13.462;2024-02-28T03:22:11;4.90;99.90
8463;DHT22;4268;52.506;13.462;2024-02-28T03:24:36;4.90;99.90
8463;DHT22;4268;52.506;13.462;2024-02-28T03:27:02;4.90;99.90
8463;DHT22;4268;52.506;13.462;2024-02-28T03:29:28;4.80;99.90
8463;DHT22;4268;52.506;13.462;2024-02-28T03:31:54;4.80;99.90
8463;DHT22;4268;52.506;13.462;2024-02-28T03:34:20;4.80;99.90
8463;DHT22;4268;52.506;13.462;2024-02-28T03:36:45;4.80;99.90
8463;DHT22;4268;52.506;13.462;2024-02-28T03:39:11;4.80;99.90
8463;DHT22;4268;52.506;13.462;2024-02-28T03:41:37;4.80;99.90
8463;DHT22;4268;52.506;13.462;2024-02-28T03:44:03;4.80;99.90
8463;DHT22;4268;52.506;13.462;2024-02-28T03:46:29;4.70;99.90
8463;DHT22;4268;52.506;13.462;2024-02-28T03:48:55;4.70;99.90
8463;DHT22;4268;52.506;13.462;2024-02-28T03:51:20;4.70;99.90
8463;DHT22;4268;52.506;13.462;2024-02-28T03:53:46;4.70;99.90
8463;DHT22;4268;52.506;13.462;2024-02-28T03:56:11;4.70;99.90
8463;DHT22;4268;52.506;13.462;2024-02-28T03:58:37;4.70;99.90
8463;DHT22;4268;52.506;13.462;2024-02-28T04:01:02;4.70;99.90
8463;DHT22;4268;52.506;13.462;2024-02-28T04:03:29;4.70;99.90
8463;DHT22;4268;52.506;13.462;2024-02-28T04:06:05;4.70;99.90
8463;DHT22;4268;52.506;13.462;2024-02-28T04:08:30;4.70;99.90
8463;DHT22;4268;52.506;13.462;2024-02-28T04:10:56;4.70;99.90
8463;DHT22;4268;52.506;13.462;2024-02-28T04:13:21;4.70;99.90
8463;DHT22;4268;52.506;13.462;2024-02-28T04:15:47;4.70;99.90
8463;DHT22;4268;52.506;13.462;2024-02-28T04:18:12;4.70;99.90
8463;DHT22;4268;52.506;13.462;2024-02-28T04:20:38;4.70;99.90
8463;DHT22;4268;52.506;13.462;2024-02-28T04:23:04;4.70;99.90
8463;DHT22;4268;52.506;13.462;2024-02-28T04:25:29;4.70;99.90
8463;DHT22;4268;52.506;13.462;2024-02-28T04:27:55;4.70;99.90
8463;DHT22;4268;52.506;13.462;2024-02-28T04:30:22;4.70;99.90
8463;DHT22;4268;52.506;13.462;2024-02-28T04:32:47;4.60;99.90
8463;DHT22;4268;52.506;13.462;2024-02-28T04:35:13;4.60;99.90
8463;DHT22;4268;52.506;13.462;2024-02-28T04:37:40;4.60;99.90
8463;DHT22;4268;52.506;13.462;2024-02-28T04:40:06;4.60;99.90
8463;DHT22;4268;52.506;13.462;2024-02-28T04:42:32;4.60;99.90
8463;DHT22;4268;52.506;13.462;2024-02-28T04:44:58;4.60;99.90
8463;DHT22;4268;52.506;13.462;2024-02-28T04:47:23;4.60;99.90
8463;DHT22;4268;52.506;13.462;2024-02-28T04:49:49;4.60;99.90
8463;DHT22;4268;52.506;13.462;2024-02-28T04:52:14;4.60;99.90
8463;DHT22;4268;52.506;13.462;2024-02-28T04:54:40;4.40;99.90
8463;DHT22;4268;52.506;13.462;2024-02-28T04:57:06;4.60;99.90
8463;DHT22;4268;52.506;13.462;2024-02-28T04:59:31;4.70;99.90
8463;DHT22;4268;52.506;13.462;2024-02-28T05:01:57;4.70;99.90
8463;DHT22;4268;52.506;13.462;2024-02-28T05:04:23;4.30;99.90
8463;DHT22;4268;52.506;13.462;2024-02-28T05:06:49;4.70;99.90
8463;DHT22;4268;52.506;13.462;2024-02-28T05:09:15;4.70;99.90
8463;DHT22;4268;52.506;13.462;2024-02-28T05:11:40;4.80;99.90
8463;DHT22;4268;52.506;13.462;2024-02-28T05:14:06;4.70;99.90
8463;DHT22;4268;52.506;13.462;2024-02-28T05:16:32;4.60;99.90
8463;DHT22;4268;52.506;13.462;2024-02-28T05:18:57;4.70;99.90
8463;DHT22;4268;52.506;13.462;2024-02-28T05:21:23;4.50;99.90
8463;DHT22;4268;52.506;13.462;2024-02-28T05:23:49;4.70;99.90
8463;DHT22;4268;52.506;13.462;2024-02-28T05:26:14;4.60;99.90
8463;DHT22;4268;52.506;13.462;2024-02-28T05:28:40;4.50;99.90
8463;DHT22;4268;52.506;13.462;2024-02-28T05:31:23;4.50;99.90
8463;DHT22;4268;52.506;13.462;2024-02-28T05:33:53;4.70;99.90
8463;DHT22;4268;52.506;13.462;2024-02-28T05:36:23;4.70;99.90
8463;DHT22;4268;52.506;13.462;2024-02-28T05:38:49;4.70;99.90
8463;DHT22;4268;52.506;13.462;2024-02-28T05:41:16;4.70;99.90
8463;DHT22;4268;52.506;13.462;2024-02-28T05:43:42;4.60;99.90
8463;DHT22;4268;52.506;13.462;2024-02-28T05:46:07;4.70;99.90
8463;DHT22;4268;52.506;13.462;2024-02-28T05:48:32;4.70;99.90
8463;DHT22;4268;52.506;13.462;2024-02-28T05:51:00;4.70;99.90
8463;DHT22;4268;52.506;13.462;2024-02-28T05:53:25;4.60;99.90
8463;DHT22;4268;52.506;13.462;2024-02-28T05:55:52;4.60;99.90
8463;DHT22;4268;52.506;13.462;2024-02-28T05:58:22;4.60;99.90
8463;DHT22;4268;52.506;13.462;2024-02-28T06:00:47;3.30;99.90
8463;DHT22;4268;52.506;13.462;2024-02-28T06:03:13;3.90;99.90
8463;DHT22;4268;52.506;13.462;2024-02-28T06:05:38;4.70;99.90
8463;DHT22;4268;52.506;13.462;2024-02-28T06:08:04;4.60;99.90
8463;DHT22;4268;52.506;13.462;2024-02-28T06:10:30;4.60;99.90
8463;DHT22;4268;52.506;13.462;2024-02-28T06:12:56;4.60;99.90
8463;DHT22;4268;52.506;13.462;2024-02-28T06:15:21;4.60;99.90
8463;DHT22;4268;52.506;13.462;2024-02-28T06:17:47;4.70;99.90
8463;DHT22;4268;52.506;13.462;2024-02-28T06:20:12;4.70;99.90
8463;DHT22;4268;52.506;13.462;2024-02-28T06:22:38;4.70;99.90
8463;DHT22;4268;52.506;13.462;2024-02-28T06:25:03;4.70;99.90
8463;DHT22;4268;52.506;13.462;2024-02-28T06:27:33;4.70;99.90
8463;DHT22;4268;52.506;13.462;2024-02-28T06:29:59;4.70;99.90
8463;DHT22;4268;52.506;13.462;2024-02-28T06:32:24;4.70;99.90
8463;DHT22;4268;52.506;13.462;2024-02-28T06:34:50;4.70;99.90
8463;DHT22;4268;52.506;13.462;2024-02-28T06:37:16;4.70;99.90
8463;DHT22;4268;52.506;13.462;2024-02-28T06:39:41;4.70;99.90
8463;DHT22;4268;52.506;13.462;2024-02-28T06:42:07;4.70;99.90
8463;DHT22;4268;52.506;13.462;2024-02-28T06:44:32;4.70;99.90
8463;DHT22;4268;52.506;13.462;2024-02-28T06:46:58;4.70;99.90
8463;DHT22;4268;52.506;13.462;2024-02-28T06:49:23;4.70;99.90
8463;DHT22;4268;52.506;13.462;2024-02-28T06:51:49;4.70;99.90
8463;DHT22;4268;52.506;13.462;2024-02-28T06:54:15;4.50;99.90
8463;DHT22;4268;52.506;13.462;2024-02-28T06:56:40;4.70;99.90
8463;DHT22;4268;52.506;13.462;2024-02-28T06:59:06;4.70;99.90
8463;DHT22;4268;52.506;13.462;2024-02-28T07:01:32;4.80;99.90
8463;DHT22;4268;52.506;13.462;2024-02-28T07:03:58;4.80;99.90
8463;DHT22;4268;52.506;13.462;2024-02-28T07:06:23;4.80;99.90
8463;DHT22;4268;52.506;13.462;2024-02-28T07:08:49;4.80;99.90
8463;DHT22;4268;52.506;13.462;2024-02-28T07:11:15;4.80;99.90
8463;DHT22;4268;52.506;13.462;2024-02-28T07:13:40;4.80;99.90
8463;DHT22;4268;52.506;13.462;2024-02-28T07:16:06;4.90;99.90
8463;DHT22;4268;52.506;13.462;2024-02-28T07:18:32;4.80;99.90
8463;DHT22;4268;52.506;13.462;2024-02-28T07:20:58;4.70;99.90
8463;DHT22;4268;52.506;13.462;2024-02-28T07:23:23;4.80;99.90
8463;DHT22;4268;52.506;13.462;2024-02-28T07:25:49;4.70;99.90
8463;DHT22;4268;52.506;13.462;2024-02-28T07:28:14;4.90;99.90
8463;DHT22;4268;52.506;13.462;2024-02-28T07:30:40;4.60;99.90
8463;DHT22;4268;52.506;13.462;2024-02-28T07:33:06;4.80;99.90
8463;DHT22;4268;52.506;13.462;2024-02-28T07:35:31;4.80;99.90
8463;DHT22;4268;52.506;13.462;2024-02-28T07:37:56;4.80;99.90
8463;DHT22;4268;52.506;13.462;2024-02-28T07:40:22;4.80;99.90
8463;DHT22;4268;52.506;13.462;2024-02-28T07:42:47;4.80;99.90
8463;DHT22;4268;52.506;13.462;2024-02-28T07:45:13;4.90;99.90
8463;DHT22;4268;52.506;13.462;2024-02-28T07:47:38;4.90;99.90
8463;DHT22;4268;52.506;13.462;2024-02-28T07:50:06;4.80;99.90
8463;DHT22;4268;52.506;13.462;2024-02-28T07:52:31;4.90;99.90
8463;DHT22;4268;52.506;13.462;2024-02-28T07:55:00;4.90;99.90
8463;DHT22;4268;52.506;13.462;2024-02-28T07:57:26;4.90;99.90
8463;DHT22;4268;52.506;13.462;2024-02-28T07:59:52;4.90;99.90
8463;DHT22;4268;52.506;13.462;2024-02-28T08:02:18;4.80;99.90
8463;DHT22;4268;52.506;13.462;2024-02-28T08:04:46;4.90;99.90
8463;DHT22;4268;52.506;13.462;2024-02-28T08:07:12;4.90;99.90
8463;DHT22;4268;52.506;13.462;2024-02-28T08:09:37;4.90;99.90
8463;DHT22;4268;52.506;13.462;2024-02-28T08:12:03;4.90;99.90
8463;DHT22;4268;52.506;13.462;2024-02-28T08:14:28;4.90;99.90
8463;DHT22;4268;52.506;13.462;2024-02-28T08:16:54;4.90;99.90
8463;DHT22;4268;52.506;13.462;2024-02-28T08:19:20;4.90;99.90
8463;DHT22;4268;52.506;13.462;2024-02-28T08:21:45;4.80;99.90
8463;DHT22;4268;52.506;13.462;2024-02-28T08:24:11;4.80;99.90
8463;DHT22;4268;52.506;13.462;2024-02-28T08:26:36;4.80;99.90
8463;DHT22;4268;52.506;13.462;2024-02-28T08:29:02;4.80;99.90
8463;DHT22;4268;52.506;13.462;2024-02-28T08:31:28;4.80;99.90
8463;DHT22;4268;52.506;13.462;2024-02-28T08:33:53;4.80;99.90
8463;DHT22;4268;52.506;13.462;2024-02-28T08:36:20;4.80;99.90
8463;DHT22;4268;52.506;13.462;2024-02-28T08:38:46;4.70;99.90
8463;DHT22;4268;52.506;13.462;2024-02-28T08:41:11;4.70;99.90
8463;DHT22;4268;52.506;13.462;2024-02-28T08:43:41;4.80;99.90
8463;DHT22;4268;52.506;13.462;2024-02-28T08:46:06;4.70;99.90
8463;DHT22;4268;52.506;13.462;2024-02-28T08:48:32;4.60;99.90
8463;DHT22;4268;52.506;13.462;2024-02-28T08:50:58;4.60;99.90
8463;DHT22;4268;52.506;13.462;2024-02-28T08:53:23;4.50;99.90
8463;DHT22;4268;52.506;13.462;2024-02-28T08:55:49;4.50;99.90
8463;DHT22;4268;52.506;13.462;2024-02-28T08:58:14;4.60;99.90
8463;DHT22;4268;52.506;13.462;2024-02-28T09:00:40;4.70;99.90
8463;DHT22;4268;52.506;13.462;2024-02-28T09:03:06;4.60;99.90
8463;DHT22;4268;52.506;13.462;2024-02-28T09:05:31;4.60;99.90
8463;DHT22;4268;52.506;13.462;2024-02-28T09:07:56;4.70;99.90
8463;DHT22;4268;52.506;13.462;2024-02-28T09:10:23;4.70;99.90
8463;DHT22;4268;52.506;13.462;2024-02-28T09:12:51;4.60;99.90
8463;DHT22;4268;52.506;13.462;2024-02-28T09:15:17;4.70;99.90
8463;DHT22;4268;52.506;13.462;2024-02-28T09:17:43;4.70;99.90
8463;DHT22;4268;52.506;13.462;2024-02-28T09:20:10;4.80;99.90
8463;DHT22;4268;52.506;13.462;2024-02-28T09:22:35;4.90;99.90
8463;DHT22;4268;52.506;13.462;2024-02-28T09:25:01;4.90;99.90
8463;DHT22;4268;52.506;13.462;2024-02-28T09:27:30;4.80;99.90
8463;DHT22;4268;52.506;13.462;2024-02-28T09:29:56;4.70;99.90
8463;DHT22;4268;52.506;13.462;2024-02-28T09:32:21;4.70;99.90
8463;DHT22;4268;52.506;13.462;2024-02-28T09:34:47;4.70;99.90
8463;DHT22;4268;52.506;13.462;2024-02-28T09:37:13;4.60;99.90
8463;DHT22;4268;52.506;13.462;2024-02-28T09:39:39;5.10;99.90
8463;DHT22;4268;52.506;13.462;2024-02-28T09:42:12;4.60;99.90
8463;DHT22;4268;52.506;13.462;2024-02-28T09:44:40;4.60;99.90
8463;DHT22;4268;52.506;13.462;2024-02-28T09:47:06;4.60;99.90
8463;DHT22;4268;52.506;13.462;2024-02-28T09:49:31;4.60;99.90
8463;DHT22;4268;52.506;13.462;2024-02-28T09:51:58;4.60;99.90
8463;DHT22;4268;52.506;13.462;2024-02-28T09:54:24;4.70;99.90
8463;DHT22;4268;52.506;13.462;2024-02-28T09:56:51;4.40;99.90
8463;DHT22;4268;52.506;13.462;2024-02-28T09:59:18;4.70;99.90
8463;DHT22;4268;52.506;13.462;2024-02-28T10:01:50;4.70;99.90
8463;DHT22;4268;52.506;13.462;2024-02-28T10:04:19;4.70;99.90
8463;DHT22;4268;52.506;13.462;2024-02-28T10:06:44;4.70;99.90
8463;DHT22;4268;52.506;13.462;2024-02-28T10:09:10;4.70;99.90
8463;DHT22;4268;52.506;13.462;2024-02-28T10:11:36;4.70;99.90
8463;DHT22;4268;52.506;13.462;2024-02-28T10:14:01;4.90;99.90
8463;DHT22;4268;52.506;13.462;2024-02-28T10:16:27;4.70;99.90
8463;DHT22;4268;52.506;13.462;2024-02-28T10:18:53;4.50;99.90
8463;DHT22;4268;52.506;13.462;2024-02-28T10:21:19;4.80;99.90
8463;DHT22;4268;52.506;13.462;2024-02-28T10:23:45;4.70;99.90
8463;DHT22;4268;52.506;13.462;2024-02-28T10:26:12;4.70;99.90
8463;DHT22;4268;52.506;13.462;2024-02-28T10:28:38;4.80;99.90
8463;DHT22;4268;52.506;13.462;2024-02-28T10:31:05;4.80;99.90
8463;DHT22;4268;52.506;13.462;2024-02-28T10:33:32;4.80;99.90
8463;DHT22;4268;52.506;13.462;2024-02-28T10:35:59;4.70;99.90
8463;DHT22;4268;52.506;13.462;2024-02-28T10:38:26;4.80;99.90
8463;DHT22;4268;52.506;13.462;2024-02-28T10:40:53;4.70;99.90
8463;DHT22;4268;52.506;13.462;2024-02-28T10:43:19;4.70;99.90
8463;DHT22;4268;52.506;13.462;2024-02-28T10:45:45;4.70;99.90
8463;DHT22;4268;52.506;13.462;2024-02-28T10:48:14;4.60;99.90
8463;DHT22;4268;52.506;13.462;2024-02-28T10:50:39;4.70;99.90
8463;DHT22;4268;52.506;13.462;2024-02-28T10:53:13;4.70;99.90
8463;DHT22;4268;52.506;13.462;2024-02-28T10:55:41;4.80;99.90
8463;DHT22;4268;52.506;13.462;2024-02-28T10:58:10;4.70;99.90
8463;DHT22;4268;52.506;13.462;2024-02-28T11:00:37;4.80;99.90
8463;DHT22;4268;52.506;13.462;2024-02-28T11:03:17;4.80;99.90
8463;DHT22;4268;52.506;13.462;2024-02-28T11:05:44;4.80;99.90
8463;DHT22;4268;52.506;13.462;2024-02-28T11:08:23;4.80;99.90
8463;DHT22;4268;52.506;13.462;2024-02-28T11:10:59;4.80;99.90
8463;DHT22;4268;52.506;13.462;2024-02-28T11:13:27;4.80;99.90
8463;DHT22;4268;52.506;13.462;2024-02-28T11:15:54;4.80;99.90
8463;DHT22;4268;52.506;13.462;2024-02-28T11:18:20;4.80;99.90
8463;DHT22;4268;52.506;13.462;2024-02-28T11:20:46;4.90;99.90
8463;DHT22;4268;52.506;13.462;2024-02-28T11:23:13;4.90;99.90
8463;DHT22;4268;52.506;13.462;2024-02-28T11:25:42;5.10;99.90
8463;DHT22;4268;52.506;13.462;2024-02-28T11:28:09;5.00;99.90
8463;DHT22;4268;52.506;13.462;2024-02-28T11:30:34;5.10;99.90
8463;DHT22;4268;52.506;13.462;2024-02-28T11:33:00;5.10;99.90
8463;DHT22;4268;52.506;13.462;2024-02-28T11:35:26;5.10;99.90
8463;DHT22;4268;52.506;13.462;2024-02-28T11:37:54;5.10;99.90
8463;DHT22;4268;52.506;13.462;2024-02-28T11:40:25;5.10;99.90
8463;DHT22;4268;52.506;13.462;2024-02-28T11:42:55;5.20;99.90
8463;DHT22;4268;52.506;13.462;2024-02-28T11:45:21;5.20;99.90
8463;DHT22;4268;52.506;13.462;2024-02-28T11:47:46;5.30;99.90
8463;DHT22;4268;52.506;13.462;2024-02-28T11:50:13;5.30;99.90
8463;DHT22;4268;52.506;13.462;2024-02-28T11:52:40;5.30;99.90
8463;DHT22;4268;52.506;13.462;2024-02-28T11:55:06;5.30;99.90
8463;DHT22;4268;52.506;13.462;2024-02-28T11:57:32;5.40;99.90
8463;DHT22;4268;52.506;13.462;2024-02-28T12:00:05;5.40;99.90
8463;DHT22;4268;52.506;13.462;2024-02-28T12:02:32;5.50;99.90
8463;DHT22;4268;52.506;13.462;2024-02-28T12:05:02;5.40;99.90
8463;DHT22;4268;52.506;13.462;2024-02-28T12:07:30;5.50;99.90
8463;DHT22;4268;52.506;13.462;2024-02-28T12:09:55;5.40;99.90
8463;DHT22;4268;52.506;13.462;2024-02-28T12:12:21;5.40;99.90
8463;DHT22;4268;52.506;13.462;2024-02-28T12:14:47;5.50;99.90
8463;DHT22;4268;52.506;13.462;2024-02-28T12:17:14;5.50;99.90
8463;DHT22;4268;52.506;13.462;2024-02-28T12:19:40;5.60;99.90
8463;DHT22;4268;52.506;13.462;2024-02-28T12:22:05;5.60;99.90
8463;DHT22;4268;52.506;13.462;2024-02-28T12:24:32;5.70;99.90
8463;DHT22;4268;52.506;13.462;2024-02-28T12:26:57;5.80;99.90
8463;DHT22;4268;52.506;13.462;2024-02-28T12:29:23;5.80;99.90
8463;DHT22;4268;52.506;13.462;2024-02-28T12:31:48;4.90;99.90
8463;DHT22;4268;52.506;13.462;2024-02-28T12:34:14;5.90;99.90
8463;DHT22;4268;52.506;13.462;2024-02-28T12:36:40;6.00;99.90
8463;DHT22;4268;52.506;13.462;2024-02-28T12:39:07;6.10;99.90
8463;DHT22;4268;52.506;13.462;2024-02-28T12:41:32;6.00;99.90
8463;DHT22;4268;52.506;13.462;2024-02-28T12:43:58;6.20;99.90
8463;DHT22;4268;52.506;13.462;2024-02-28T12:46:23;6.30;99.90
8463;DHT22;4268;52.506;13.462;2024-02-28T12:48:49;6.20;99.90
8463;DHT22;4268;52.506;13.462;2024-02-28T12:51:42;6.30;99.90
8463;DHT22;4268;52.506;13.462;2024-02-28T12:54:09;6.30;99.90
8463;DHT22;4268;52.506;13.462;2024-02-28T12:56:37;6.30;99.90
8463;DHT22;4268;52.506;13.462;2024-02-28T12:59:04;6.40;99.90
8463;DHT22;4268;52.506;13.462;2024-02-28T13:01:30;6.50;99.90
8463;DHT22;4268;52.506;13.462;2024-02-28T13:03:56;6.50;99.90
8463;DHT22;4268;52.506;13.462;2024-02-28T13:06:21;6.50;99.90
8463;DHT22;4268;52.506;13.462;2024-02-28T13:08:47;6.50;99.90
8463;DHT22;4268;52.506;13.462;2024-02-28T13:11:21;6.40;99.90
8463;DHT22;4268;52.506;13.462;2024-02-28T13:13:47;6.40;99.90
8463;DHT22;4268;52.506;13.462;2024-02-28T13:16:13;6.30;99.90
8463;DHT22;4268;52.506;13.462;2024-02-28T13:18:39;6.40;99.90
8463;DHT22;4268;52.506;13.462;2024-02-28T13:21:04;6.20;99.90
8463;DHT22;4268;52.506;13.462;2024-02-28T13:23:30;6.40;99.90
8463;DHT22;4268;52.506;13.462;2024-02-28T13:25:57;6.80;99.90
8463;DHT22;4268;52.506;13.462;2024-02-28T13:28:23;6.90;99.90
8463;DHT22;4268;52.506;13.462;2024-02-28T13:33:23;6.90;99.90
8463;DHT22;4268;52.506;13.462;2024-02-28T13:35:49;6.80;99.90
8463;DHT22;4268;52.506;13.462;2024-02-28T13:38:14;6.70;99.90
8463;DHT22;4268;52.506;13.462;2024-02-28T13:40:40;6.70;99.90
8463;DHT22;4268;52.506;13.462;2024-02-28T13:43:06;6.60;99.90
8463;DHT22;4268;52.506;13.462;2024-02-28T13:45:32;5.90;99.90
8463;DHT22;4268;52.506;13.462;2024-02-28T13:47:59;6.60;99.90
8463;DHT22;4268;52.506;13.462;2024-02-28T13:50:25;6.40;99.90
8463;DHT22;4268;52.506;13.462;2024-02-28T13:52:57;6.30;99.90
8463;DHT22;4268;52.506;13.462;2024-02-28T13:55:22;6.40;99.90
8463;DHT22;4268;52.506;13.462;2024-02-28T13:57:48;6.30;99.90
8463;DHT22;4268;52.506;13.462;2024-02-28T14:00:14;6.30;99.90
8463;DHT22;4268;52.506;13.462;2024-02-28T14:02:40;6.30;99.90
8463;DHT22;4268;52.506;13.462;2024-02-28T14:05:06;6.30;99.90
8463;DHT22;4268;52.506;13.462;2024-02-28T14:07:33;6.30;99.90
8463;DHT22;4268;52.506;13.462;2024-02-28T14:10:01;6.40;99.90
8463;DHT22;4268;52.506;13.462;2024-02-28T14:12:26;6.70;99.90
8463;DHT22;4268;52.506;13.462;2024-02-28T14:14:52;6.80;99.90
8463;DHT22;4268;52.506;13.462;2024-02-28T14:17:17;6.90;99.90
8463;DHT22;4268;52.506;13.462;2024-02-28T14:19:43;6.90;99.90
8463;DHT22;4268;52.506;13.462;2024-02-28T14:22:08;6.90;99.90
8463;DHT22;4268;52.506;13.462;2024-02-28T14:24:37;6.80;99.90
8463;DHT22;4268;52.506;13.462;2024-02-28T14:27:04;6.90;99.90
8463;DHT22;4268;52.506;13.462;2024-02-28T14:29:30;6.90;99.90
8463;DHT22;4268;52.506;13.462;2024-02-28T14:31:55;6.80;99.90
8463;DHT22;4268;52.506;13.462;2024-02-28T14:34:21;6.60;99.90
8463;DHT22;4268;52.506;13.462;2024-02-28T14:36:48;6.40;99.90
8463;DHT22;4268;52.506;13.462;2024-02-28T14:39:14;6.40;99.90
8463;DHT22;4268;52.506;13.462;2024-02-28T14:41:42;6.20;99.90
8463;DHT22;4268;52.506;13.462;2024-02-28T14:44:09;6.10;99.90
8463;DHT22;4268;52.506;13.462;2024-02-28T14:46:35;6.10;99.90
8463;DHT22;4268;52.506;13.462;2024-02-28T14:49:00;6.00;99.90
8463;DHT22;4268;52.506;13.462;2024-02-28T14:51:28;6.00;99.90
8463;DHT22;4268;52.506;13.462;2024-02-28T14:53:55;5.50;99.90
8463;DHT22;4268;52.506;13.462;2024-02-28T14:56:21;5.90;99.90
8463;DHT22;4268;52.506;13.462;2024-02-28T14:58:47;5.90;99.90
8463;DHT22;4268;52.506;13.462;2024-02-28T15:01:12;5.90;99.90
8463;DHT22;4268;52.506;13.462;2024-02-28T15:03:38;5.90;99.90
8463;DHT22;4268;52.506;13.462;2024-02-28T15:06:04;5.70;99.90
8463;DHT22;4268;52.506;13.462;2024-02-28T15:08:29;5.60;99.90
8463;DHT22;4268;52.506;13.462;2024-02-28T15:10:55;5.60;99.90
8463;DHT22;4268;52.506;13.462;2024-02-28T15:13:21;5.60;99.90
8463;DHT22;4268;52.506;13.462;2024-02-28T15:15:49;5.70;99.90
8463;DHT22;4268;52.506;13.462;2024-02-28T15:18:14;5.60;99.90
8463;DHT22;4268;52.506;13.462;2024-02-28T15:20:40;6.90;99.90
8463;DHT22;4268;52.506;13.462;2024-02-28T15:23:06;5.50;99.90
8463;DHT22;4268;52.506;13.462;2024-02-28T15:25:31;5.50;99.90
8463;DHT22;4268;52.506;13.462;2024-02-28T15:27:57;5.40;99.90
8463;DHT22;4268;52.506;13.462;2024-02-28T15:30:22;5.40;99.90
8463;DHT22;4268;52.506;13.462;2024-02-28T15:32:48;5.20;99.90
8463;DHT22;4268;52.506;13.462;2024-02-28T15:35:13;5.10;99.90
8463;DHT22;4268;52.506;13.462;2024-02-28T15:37:39;5.10;99.90
8463;DHT22;4268;52.506;13.462;2024-02-28T15:40:05;5.00;99.90
8463;DHT22;4268;52.506;13.462;2024-02-28T15:42:34;5.00;99.90
8463;DHT22;4268;52.506;13.462;2024-02-28T15:45:00;5.00;99.90
8463;DHT22;4268;52.506;13.462;2024-02-28T15:47:25;5.00;99.90
8463;DHT22;4268;52.506;13.462;2024-02-28T15:49:52;5.10;99.90
8463;DHT22;4268;52.506;13.462;2024-02-28T15:52:17;5.10;99.90
8463;DHT22;4268;52.506;13.462;2024-02-28T15:54:43;5.00;99.90
8463;DHT22;4268;52.506;13.462;2024-02-28T15:57:08;5.00;99.90